createdAt,value
2022-08-05T00:04:46.587Z,23.60
2022-08-05T00:09:50.428Z,23.60
2022-08-05T00:14:43.771Z,23.50
2022-08-05T00:19:45.838Z,23.50
2022-08-05T00:24:54.830Z,23.50
2022-08-05T00:29:48.597Z,23.30
2022-08-05T00:35:03.918Z,23.00
2022-08-05T00:39:59.296Z,22.90
2022-08-05T00:44:52.728Z,22.90
2022-08-05T00:49:51.695Z,23.10
2022-08-05T00:54:45.219Z,23.30
2022-08-05T00:59:44.399Z,23.30
2022-08-05T01:04:42.018Z,23.40
2022-08-05T01:09:35.651Z,23.40
2022-08-05T01:14:38.567Z,23.40
2022-08-05T01:20:01.118Z,23.40
2022-08-05T01:25:53.260Z,23.40
2022-08-05T01:30:56.169Z,23.30
2022-08-05T01:35:53.433Z,23.50
2022-08-05T01:40:48.675Z,23.40
2022-08-05T01:45:43.758Z,23.40
2022-08-05T01:50:53.522Z,23.30
2022-08-05T01:55:48.711Z,23.30
2022-08-05T02:00:46.587Z,23.30
2022-08-05T02:05:42.682Z,23.30
2022-08-05T02:10:46.203Z,23.60
2022-08-05T02:15:50.985Z,23.70
2022-08-05T02:20:51.139Z,23.70
2022-08-05T02:25:50.120Z,23.60
2022-08-05T02:30:56.728Z,23.70
2022-08-05T02:35:56.248Z,23.60
2022-08-05T02:40:56.859Z,23.70
2022-08-05T02:45:53.972Z,23.80
2022-08-05T02:50:50.488Z,24.00
2022-08-05T02:55:54.834Z,24.10
2022-08-05T03:00:57.117Z,24.20
2022-08-05T03:06:56.334Z,24.40
2022-08-05T03:11:57.887Z,24.50
2022-08-05T03:16:32.241Z,24.50
2022-08-05T03:21:28.686Z,24.50
2022-08-05T03:26:30.841Z,24.50
2022-08-05T03:31:56.721Z,24.50
2022-08-05T03:36:42.024Z,24.30
2022-08-05T03:41:45.432Z,24.30
2022-08-05T03:46:45.853Z,24.30
2022-08-05T03:52:48.835Z,24.40
2022-08-05T03:57:16.638Z,24.50
2022-08-05T04:02:14.998Z,24.50
2022-08-05T04:07:13.097Z,24.50
2022-08-05T04:12:24.578Z,24.40
2022-08-05T04:17:19.089Z,24.20
2022-08-05T04:22:15.273Z,24.10
2022-08-05T04:27:15.526Z,24.10
2022-08-05T04:32:10.169Z,24.20
2022-08-05T04:37:04.388Z,24.20
2022-08-05T04:42:00.221Z,24.30
2022-08-05T04:46:55.158Z,24.30
2022-08-05T04:51:48.472Z,24.40
2022-08-05T04:56:58.731Z,24.30
2022-08-05T05:02:06.850Z,24.20
2022-08-05T05:07:09.439Z,23.80
2022-08-05T05:12:03.188Z,23.90
2022-08-05T05:16:57.941Z,24.10
2022-08-05T05:21:51.249Z,24.40
2022-08-05T05:26:51.848Z,24.30
2022-08-05T05:31:46.433Z,24.10
2022-08-05T05:36:41.369Z,24.00
2022-08-05T05:41:40.631Z,24.20
2022-08-05T05:46:35.123Z,24.00
2022-08-05T05:51:49.733Z,23.90
2022-08-05T05:56:45.576Z,24.00
2022-08-05T06:01:57.512Z,23.90
2022-08-05T06:06:51.364Z,23.80
2022-08-05T06:12:01.303Z,24.00
2022-08-05T06:16:55.633Z,24.20
2022-08-05T06:21:50.391Z,24.00
2022-08-05T06:26:52.378Z,24.00
2022-08-05T06:31:46.650Z,24.30
2022-08-05T06:36:57.065Z,24.50
2022-08-05T06:41:53.099Z,24.60
2022-08-05T06:46:46.601Z,24.70
2022-08-05T06:51:44.485Z,24.80
2022-08-05T06:56:38.726Z,24.70
2022-08-05T07:01:33.970Z,24.60
2022-08-05T07:06:27.634Z,24.60
2022-08-05T07:11:25.276Z,24.70
2022-08-05T07:18:02.277Z,24.90
2022-08-05T07:22:00.421Z,25.30
2022-08-05T07:26:54.802Z,25.60
2022-08-05T07:31:55.040Z,25.70
2022-08-05T07:36:51.341Z,25.90
2022-08-05T07:42:13.980Z,26.30
2022-08-05T07:46:57.983Z,26.40
2022-08-05T07:51:54.654Z,26.90
2022-08-05T07:57:01.695Z,27.30
2022-08-05T08:02:02.373Z,27.30
2022-08-05T08:07:00.862Z,27.50
2022-08-05T08:12:01.806Z,27.50
2022-08-05T08:16:57.200Z,27.60
2022-08-05T08:21:50.588Z,27.40
2022-08-05T08:26:46.209Z,27.50
2022-08-05T08:31:39.551Z,27.90
2022-08-05T08:36:49.140Z,27.90
2022-08-05T08:41:52.064Z,28.00
2022-08-05T08:46:52.691Z,28.20
2022-08-05T08:52:06.181Z,28.20
2022-08-05T08:57:11.266Z,28.50
2022-08-05T09:02:08.549Z,28.60
2022-08-05T09:07:02.119Z,28.60
2022-08-05T09:12:20.023Z,28.90
2022-08-05T09:17:40.147Z,29.30
2022-08-05T09:22:31.835Z,29.40
2022-08-05T09:28:04.212Z,29.50
2022-08-05T09:32:51.998Z,29.70
2022-08-05T09:38:12.009Z,29.90
2022-08-05T09:43:08.585Z,29.90
2022-08-05T09:48:04.256Z,29.90
2022-08-05T09:52:59.812Z,29.90
2022-08-05T09:57:58.599Z,29.90
2022-08-05T10:02:58.332Z,30.00
2022-08-05T10:08:36.481Z,29.90
2022-08-05T10:13:11.987Z,29.80
2022-08-05T10:18:16.932Z,29.80
2022-08-05T10:23:34.194Z,29.90
2022-08-05T10:28:29.608Z,29.90
2022-08-05T10:33:29.494Z,29.90
2022-08-05T10:38:33.056Z,29.90
2022-08-05T10:43:42.297Z,30.00
2022-08-05T10:48:56.413Z,30.20
2022-08-05T10:54:00.980Z,30.00
2022-08-05T10:59:12.842Z,30.10
2022-08-05T11:04:26.295Z,30.20
2022-08-05T11:09:32.418Z,30.40
2022-08-05T11:15:01.201Z,30.50
2022-08-05T11:20:10.500Z,30.50
2022-08-05T11:26:04.655Z,30.60
2022-08-05T11:31:54.138Z,30.60
2022-08-05T11:36:53.943Z,30.70
2022-08-05T11:42:02.287Z,30.70
2022-08-05T11:47:13.802Z,30.80
2022-08-05T11:52:12.266Z,30.90
2022-08-05T11:57:24.462Z,30.90
2022-08-05T12:02:30.298Z,30.80
2022-08-05T12:28:01.087Z,30.80
2022-08-05T12:34:35.707Z,30.60
2022-08-05T12:52:29.578Z,30.50
2022-08-05T12:58:39.079Z,30.50
2022-08-05T13:02:57.667Z,30.50
2022-08-05T13:08:01.621Z,30.50
2022-08-05T13:12:58.778Z,30.40
2022-08-05T13:17:59.287Z,30.40
2022-08-05T13:22:59.433Z,30.40
2022-08-05T13:27:57.610Z,30.40
2022-08-05T13:32:51.713Z,30.40
2022-08-05T13:37:46.258Z,30.50
2022-08-05T13:42:49.756Z,30.50
2022-08-05T13:48:09.755Z,30.50
2022-08-05T13:53:04.245Z,30.50
2022-08-05T13:58:03.080Z,30.40
2022-08-05T14:02:58.415Z,30.50
2022-08-05T14:08:03.293Z,30.60
2022-08-05T14:13:01.137Z,30.50
2022-08-05T14:17:59.505Z,30.50
2022-08-05T14:22:53.689Z,30.50
2022-08-05T14:27:48.686Z,30.50
2022-08-05T14:32:42.731Z,30.60
2022-08-05T14:37:45.531Z,30.50
2022-08-05T14:42:42.389Z,30.50
2022-08-05T14:48:02.948Z,30.50
2022-08-05T14:52:53.449Z,30.40
2022-08-05T14:57:56.045Z,30.40
2022-08-05T15:02:58.211Z,30.50
2022-08-05T15:09:03.541Z,30.50
2022-08-05T15:14:34.642Z,30.50
2022-08-05T15:19:50.573Z,30.60
2022-08-05T15:24:48.861Z,30.60
2022-08-05T15:29:49.592Z,30.80
2022-08-05T15:34:49.137Z,30.80
2022-08-05T15:41:03.838Z,30.80
2022-08-05T15:44:58.617Z,30.80
2022-08-05T15:50:38.385Z,30.80
2022-08-05T15:56:18.874Z,30.70
2022-08-05T16:01:39.578Z,30.70
2022-08-05T16:06:35.732Z,30.60
2022-08-05T16:12:20.532Z,30.60
2022-08-05T16:17:39.637Z,30.50
2022-08-05T16:24:12.891Z,30.50
2022-08-05T16:29:50.912Z,30.50
2022-08-05T16:34:50.965Z,30.50
2022-08-05T16:40:34.120Z,30.60
2022-08-05T16:46:04.578Z,30.60
2022-08-05T16:51:10.125Z,30.60
2022-08-05T16:56:14.281Z,30.60
2022-08-05T17:06:35.335Z,30.50
2022-08-05T17:11:35.918Z,30.30
2022-08-05T17:16:43.764Z,30.20
2022-08-05T17:21:51.609Z,30.00
2022-08-05T17:27:02.647Z,29.80
2022-08-05T17:38:57.184Z,29.10
2022-08-05T17:51:50.836Z,28.10
2022-08-05T17:57:59.777Z,27.60
2022-08-05T18:10:00.014Z,27.30
2022-08-05T18:15:38.538Z,27.00
2022-08-05T18:21:19.944Z,26.40
2022-08-05T18:32:12.681Z,22.80
2022-08-05T18:37:12.292Z,22.00
2022-08-05T18:42:11.482Z,21.30
2022-08-05T18:47:12.332Z,21.40
2022-08-05T18:52:33.092Z,21.10
2022-08-05T18:57:50.126Z,21.10
2022-08-05T19:02:48.892Z,21.00
2022-08-05T19:07:50.259Z,21.00
2022-08-05T19:12:46.148Z,20.90
2022-08-05T19:18:08.355Z,20.90
2022-08-05T19:22:57.160Z,21.00
2022-08-05T19:27:52.259Z,21.00
2022-08-05T19:33:34.076Z,20.60
2022-08-05T19:50:38.255Z,21.00
2022-08-05T19:56:14.804Z,21.20
2022-08-05T20:01:28.650Z,21.00
2022-08-05T20:07:49.376Z,20.40
2022-08-05T20:12:17.508Z,20.80
2022-08-05T20:17:23.216Z,21.00
2022-08-05T20:22:21.759Z,20.90
2022-08-05T20:27:41.557Z,20.90
2022-08-05T20:32:45.237Z,20.90
2022-08-05T20:38:06.332Z,20.90
2022-08-05T20:42:55.480Z,20.90
2022-08-05T20:48:00.625Z,20.80
2022-08-05T20:52:54.187Z,20.80
2022-08-05T20:57:47.669Z,20.70
2022-08-05T21:02:51.841Z,20.70
2022-08-05T21:07:52.035Z,20.60
2022-08-05T21:12:57.774Z,20.70
2022-08-05T21:17:58.650Z,20.80
2022-08-05T21:22:54.478Z,20.90
2022-08-05T21:27:52.583Z,20.70
2022-08-05T21:32:46.495Z,20.60
2022-08-05T21:37:41.359Z,20.20
2022-08-05T21:42:44.871Z,20.40
2022-08-05T21:47:56.672Z,20.80
2022-08-05T21:52:50.987Z,20.80
2022-08-05T21:57:45.780Z,20.80
2022-08-05T22:02:41.726Z,20.70
2022-08-05T22:07:40.144Z,20.70
2022-08-05T22:12:51.807Z,20.60
2022-08-05T22:17:48.678Z,20.60
2022-08-05T22:23:17.081Z,20.50
2022-08-05T22:28:15.956Z,20.50
2022-08-05T22:33:15.650Z,20.50
2022-08-05T22:38:09.882Z,20.40
2022-08-05T22:43:03.538Z,20.50
2022-08-05T22:47:59.736Z,20.70
2022-08-05T22:52:54.054Z,20.70
2022-08-05T22:57:47.518Z,20.40
2022-08-05T23:02:46.952Z,20.40
2022-08-05T23:07:48.366Z,20.50
2022-08-05T23:12:44.072Z,20.60
2022-08-05T23:18:02.434Z,20.30
2022-08-05T23:22:55.906Z,20.30
2022-08-05T23:28:00.157Z,20.20
2022-08-05T23:32:54.381Z,20.30
2022-08-05T23:37:47.807Z,20.40
2022-08-05T23:42:47.452Z,20.40
2022-08-05T23:47:48.333Z,20.40
2022-08-05T23:52:50.044Z,20.40
2022-08-05T23:57:48.847Z,20.40
